sensor_id;sensor_type;location;lat;lon;timestamp;P1;durP1;ratioP1;P2;durP2;ratioP2
10727;SDS011;5415;59.322;18.246;2023-03-01T00:01:00;2.47;;;1.00;;
10727;SDS011;5415;59.322;18.246;2023-03-01T00:03:28;3.43;;;1.00;;
10727;SDS011;5415;59.322;18.246;2023-03-01T00:05:56;7.00;;;1.33;;
10727;SDS011;5415;59.322;18.246;2023-03-01T00:08:26;3.53;;;0.83;;
10727;SDS011;5415;59.322;18.246;2023-03-01T00:11:00;4.83;;;1.23;;
10727;SDS011;5415;59.322;18.246;2023-03-01T00:13:29;4.00;;;1.40;;
10727;SDS011;5415;59.322;18.246;2023-03-01T00:15:57;3.83;;;1.10;;
10727;SDS011;5415;59.322;18.246;2023-03-01T00:18:25;4.50;;;1.00;;
10727;SDS011;5415;59.322;18.246;2023-03-01T00:20:53;4.03;;;1.40;;
10727;SDS011;5415;59.322;18.246;2023-03-01T00:23:21;2.77;;;1.10;;
10727;SDS011;5415;59.322;18.246;2023-03-01T00:25:52;3.33;;;1.00;;
10727;SDS011;5415;59.322;18.246;2023-03-01T00:28:20;3.80;;;1.17;;
10727;SDS011;5415;59.322;18.246;2023-03-01T00:30:47;3.70;;;1.13;;
10727;SDS011;5415;59.322;18.246;2023-03-01T00:33:16;4.13;;;1.50;;
10727;SDS011;5415;59.322;18.246;2023-03-01T00:35:43;2.03;;;0.70;;
10727;SDS011;5415;59.322;18.246;2023-03-01T00:38:12;2.67;;;1.00;;
10727;SDS011;5415;59.322;18.246;2023-03-01T00:40:54;2.97;;;1.07;;
10727;SDS011;5415;59.322;18.246;2023-03-01T00:43:21;4.37;;;1.17;;
10727;SDS011;5415;59.322;18.246;2023-03-01T00:45:49;4.70;;;1.17;;
10727;SDS011;5415;59.322;18.246;2023-03-01T00:48:16;6.00;;;1.23;;
10727;SDS011;5415;59.322;18.246;2023-03-01T00:50:43;4.80;;;1.30;;
10727;SDS011;5415;59.322;18.246;2023-03-01T00:53:11;3.20;;;1.00;;
10727;SDS011;5415;59.322;18.246;2023-03-01T00:55:39;3.37;;;1.10;;
10727;SDS011;5415;59.322;18.246;2023-03-01T00:58:08;3.40;;;1.20;;
10727;SDS011;5415;59.322;18.246;2023-03-01T01:00:35;6.03;;;1.20;;
10727;SDS011;5415;59.322;18.246;2023-03-01T01:03:03;3.93;;;1.40;;
10727;SDS011;5415;59.322;18.246;2023-03-01T01:05:33;4.00;;;1.40;;
10727;SDS011;5415;59.322;18.246;2023-03-01T01:08:01;3.60;;;1.20;;
10727;SDS011;5415;59.322;18.246;2023-03-01T01:10:28;2.47;;;1.30;;
10727;SDS011;5415;59.322;18.246;2023-03-01T01:12:56;7.10;;;1.40;;
10727;SDS011;5415;59.322;18.246;2023-03-01T01:15:26;4.40;;;1.27;;
10727;SDS011;5415;59.322;18.246;2023-03-01T01:17:53;3.67;;;1.57;;
10727;SDS011;5415;59.322;18.246;2023-03-01T01:20:21;6.97;;;1.30;;
10727;SDS011;5415;59.322;18.246;2023-03-01T01:22:49;3.07;;;1.10;;
10727;SDS011;5415;59.322;18.246;2023-03-01T01:25:18;5.93;;;1.40;;
10727;SDS011;5415;59.322;18.246;2023-03-01T01:27:46;3.87;;;1.30;;
10727;SDS011;5415;59.322;18.246;2023-03-01T01:30:13;2.97;;;1.47;;
10727;SDS011;5415;59.322;18.246;2023-03-01T01:32:42;6.57;;;1.50;;
10727;SDS011;5415;59.322;18.246;2023-03-01T01:35:10;4.77;;;1.30;;
10727;SDS011;5415;59.322;18.246;2023-03-01T01:37:37;4.77;;;1.17;;
10727;SDS011;5415;59.322;18.246;2023-03-01T01:40:05;5.07;;;1.23;;
10727;SDS011;5415;59.322;18.246;2023-03-01T01:42:33;4.17;;;1.37;;
10727;SDS011;5415;59.322;18.246;2023-03-01T01:47:51;3.93;;;1.27;;
10727;SDS011;5415;59.322;18.246;2023-03-01T01:50:20;4.63;;;1.20;;
10727;SDS011;5415;59.322;18.246;2023-03-01T01:52:48;5.50;;;1.23;;
10727;SDS011;5415;59.322;18.246;2023-03-01T01:55:17;7.90;;;1.43;;
10727;SDS011;5415;59.322;18.246;2023-03-01T01:57:47;5.20;;;1.30;;
10727;SDS011;5415;59.322;18.246;2023-03-01T02:00:17;2.37;;;1.20;;
10727;SDS011;5415;59.322;18.246;2023-03-01T02:02:45;4.87;;;1.20;;
10727;SDS011;5415;59.322;18.246;2023-03-01T02:05:17;4.10;;;1.23;;
10727;SDS011;5415;59.322;18.246;2023-03-01T02:07:47;3.90;;;1.03;;
10727;SDS011;5415;59.322;18.246;2023-03-01T02:10:15;5.30;;;1.30;;
10727;SDS011;5415;59.322;18.246;2023-03-01T02:12:44;4.33;;;1.20;;
10727;SDS011;5415;59.322;18.246;2023-03-01T02:15:11;4.97;;;1.17;;
10727;SDS011;5415;59.322;18.246;2023-03-01T02:17:39;3.67;;;1.00;;
10727;SDS011;5415;59.322;18.246;2023-03-01T02:20:09;5.87;;;1.47;;
10727;SDS011;5415;59.322;18.246;2023-03-01T02:22:42;6.17;;;1.20;;
10727;SDS011;5415;59.322;18.246;2023-03-01T02:25:12;3.67;;;1.20;;
10727;SDS011;5415;59.322;18.246;2023-03-01T02:27:48;3.60;;;1.20;;
10727;SDS011;5415;59.322;18.246;2023-03-01T02:30:17;1.67;;;1.10;;
10727;SDS011;5415;59.322;18.246;2023-03-01T02:32:46;5.57;;;1.53;;
10727;SDS011;5415;59.322;18.246;2023-03-01T02:35:14;3.20;;;1.10;;
10727;SDS011;5415;59.322;18.246;2023-03-01T02:37:42;4.27;;;1.03;;
10727;SDS011;5415;59.322;18.246;2023-03-01T02:40:12;2.97;;;1.27;;
10727;SDS011;5415;59.322;18.246;2023-03-01T02:42:43;2.60;;;1.13;;
10727;SDS011;5415;59.322;18.246;2023-03-01T02:45:13;4.40;;;1.00;;
10727;SDS011;5415;59.322;18.246;2023-03-01T02:47:42;7.20;;;1.40;;
10727;SDS011;5415;59.322;18.246;2023-03-01T02:50:19;3.37;;;1.33;;
10727;SDS011;5415;59.322;18.246;2023-03-01T02:52:53;1.93;;;1.20;;
10727;SDS011;5415;59.322;18.246;2023-03-01T02:55:24;2.97;;;1.00;;
10727;SDS011;5415;59.322;18.246;2023-03-01T02:57:52;3.77;;;1.20;;
10727;SDS011;5415;59.322;18.246;2023-03-01T03:00:22;4.53;;;1.10;;
10727;SDS011;5415;59.322;18.246;2023-03-01T03:02:52;7.27;;;1.37;;
10727;SDS011;5415;59.322;18.246;2023-03-01T03:05:22;2.57;;;1.13;;
10727;SDS011;5415;59.322;18.246;2023-03-01T03:07:51;2.77;;;0.90;;
10727;SDS011;5415;59.322;18.246;2023-03-01T03:10:20;2.93;;;1.33;;
10727;SDS011;5415;59.322;18.246;2023-03-01T03:12:48;2.60;;;1.40;;
10727;SDS011;5415;59.322;18.246;2023-03-01T03:15:17;3.07;;;1.20;;
10727;SDS011;5415;59.322;18.246;2023-03-01T03:17:45;4.47;;;1.10;;
10727;SDS011;5415;59.322;18.246;2023-03-01T03:20:16;2.07;;;1.00;;
10727;SDS011;5415;59.322;18.246;2023-03-01T03:22:45;4.13;;;1.00;;
10727;SDS011;5415;59.322;18.246;2023-03-01T03:25:14;4.17;;;1.10;;
10727;SDS011;5415;59.322;18.246;2023-03-01T03:27:45;2.70;;;1.00;;
10727;SDS011;5415;59.322;18.246;2023-03-01T03:30:13;3.27;;;1.10;;
10727;SDS011;5415;59.322;18.246;2023-03-01T03:32:42;1.77;;;0.80;;
10727;SDS011;5415;59.322;18.246;2023-03-01T03:35:17;4.93;;;1.10;;
10727;SDS011;5415;59.322;18.246;2023-03-01T03:37:44;1.67;;;1.10;;
10727;SDS011;5415;59.322;18.246;2023-03-01T03:40:32;1.93;;;1.20;;
10727;SDS011;5415;59.322;18.246;2023-03-01T03:43:00;4.60;;;1.33;;
10727;SDS011;5415;59.322;18.246;2023-03-01T03:45:28;2.43;;;0.90;;
10727;SDS011;5415;59.322;18.246;2023-03-01T03:47:58;3.43;;;1.00;;
10727;SDS011;5415;59.322;18.246;2023-03-01T03:50:27;1.80;;;0.80;;
10727;SDS011;5415;59.322;18.246;2023-03-01T03:52:55;2.07;;;1.07;;
10727;SDS011;5415;59.322;18.246;2023-03-01T03:55:22;2.40;;;1.23;;
10727;SDS011;5415;59.322;18.246;2023-03-01T03:57:55;4.50;;;1.30;;
10727;SDS011;5415;59.322;18.246;2023-03-01T04:00:27;3.73;;;1.30;;
10727;SDS011;5415;59.322;18.246;2023-03-01T04:02:55;2.90;;;1.23;;
10727;SDS011;5415;59.322;18.246;2023-03-01T04:05:22;2.30;;;1.00;;
10727;SDS011;5415;59.322;18.246;2023-03-01T04:07:52;2.20;;;1.13;;
10727;SDS011;5415;59.322;18.246;2023-03-01T04:10:26;1.57;;;1.00;;
10727;SDS011;5415;59.322;18.246;2023-03-01T04:12:55;2.13;;;1.00;;
10727;SDS011;5415;59.322;18.246;2023-03-01T04:15:22;3.47;;;1.20;;
10727;SDS011;5415;59.322;18.246;2023-03-01T04:17:51;1.87;;;1.03;;
10727;SDS011;5415;59.322;18.246;2023-03-01T04:20:19;2.00;;;1.20;;
10727;SDS011;5415;59.322;18.246;2023-03-01T04:22:50;1.90;;;0.90;;
10727;SDS011;5415;59.322;18.246;2023-03-01T04:25:19;1.37;;;1.00;;
10727;SDS011;5415;59.322;18.246;2023-03-01T04:27:46;2.07;;;1.03;;
10727;SDS011;5415;59.322;18.246;2023-03-01T04:30:14;2.40;;;1.20;;
10727;SDS011;5415;59.322;18.246;2023-03-01T04:32:41;1.90;;;1.07;;
10727;SDS011;5415;59.322;18.246;2023-03-01T04:35:09;1.80;;;1.10;;
10727;SDS011;5415;59.322;18.246;2023-03-01T04:37:38;3.70;;;1.07;;
10727;SDS011;5415;59.322;18.246;2023-03-01T04:40:07;3.57;;;1.10;;
10727;SDS011;5415;59.322;18.246;2023-03-01T04:42:43;1.80;;;1.20;;
10727;SDS011;5415;59.322;18.246;2023-03-01T04:45:13;2.17;;;1.27;;
10727;SDS011;5415;59.322;18.246;2023-03-01T04:47:41;4.40;;;0.77;;
10727;SDS011;5415;59.322;18.246;2023-03-01T04:50:10;1.63;;;0.70;;
10727;SDS011;5415;59.322;18.246;2023-03-01T04:52:37;1.70;;;1.00;;
10727;SDS011;5415;59.322;18.246;2023-03-01T04:55:05;2.53;;;0.80;;
10727;SDS011;5415;59.322;18.246;2023-03-01T04:57:33;3.40;;;1.10;;
10727;SDS011;5415;59.322;18.246;2023-03-01T05:00:03;3.07;;;0.90;;
10727;SDS011;5415;59.322;18.246;2023-03-01T05:02:45;2.87;;;0.90;;
10727;SDS011;5415;59.322;18.246;2023-03-01T05:05:13;2.53;;;0.70;;
10727;SDS011;5415;59.322;18.246;2023-03-01T05:07:41;1.60;;;0.90;;
10727;SDS011;5415;59.322;18.246;2023-03-01T05:10:09;3.93;;;1.00;;
10727;SDS011;5415;59.322;18.246;2023-03-01T05:12:36;0.93;;;0.80;;
10727;SDS011;5415;59.322;18.246;2023-03-01T05:15:07;1.80;;;0.80;;
10727;SDS011;5415;59.322;18.246;2023-03-01T05:17:35;1.83;;;1.03;;
10727;SDS011;5415;59.322;18.246;2023-03-01T05:20:03;1.87;;;0.70;;
10727;SDS011;5415;59.322;18.246;2023-03-01T05:22:33;1.40;;;0.90;;
10727;SDS011;5415;59.322;18.246;2023-03-01T05:25:02;1.63;;;0.90;;
10727;SDS011;5415;59.322;18.246;2023-03-01T05:27:30;2.60;;;0.90;;
10727;SDS011;5415;59.322;18.246;2023-03-01T05:29:57;1.10;;;0.67;;
10727;SDS011;5415;59.322;18.246;2023-03-01T05:32:40;1.53;;;0.80;;
10727;SDS011;5415;59.322;18.246;2023-03-01T05:35:08;1.03;;;0.77;;
10727;SDS011;5415;59.322;18.246;2023-03-01T05:37:38;1.00;;;0.70;;
10727;SDS011;5415;59.322;18.246;2023-03-01T05:40:07;3.13;;;0.97;;
10727;SDS011;5415;59.322;18.246;2023-03-01T05:42:41;2.90;;;0.87;;
10727;SDS011;5415;59.322;18.246;2023-03-01T05:45:09;1.80;;;0.93;;
10727;SDS011;5415;59.322;18.246;2023-03-01T05:47:40;1.77;;;0.80;;
10727;SDS011;5415;59.322;18.246;2023-03-01T05:50:13;2.20;;;0.97;;
10727;SDS011;5415;59.322;18.246;2023-03-01T05:52:44;1.70;;;0.90;;
10727;SDS011;5415;59.322;18.246;2023-03-01T05:55:11;1.37;;;0.70;;
10727;SDS011;5415;59.322;18.246;2023-03-01T05:57:39;2.37;;;0.80;;
10727;SDS011;5415;59.322;18.246;2023-03-01T06:00:07;4.63;;;0.87;;
10727;SDS011;5415;59.322;18.246;2023-03-01T06:02:35;3.90;;;1.00;;
10727;SDS011;5415;59.322;18.246;2023-03-01T06:05:05;2.47;;;1.03;;
10727;SDS011;5415;59.322;18.246;2023-03-01T06:07:33;2.63;;;0.90;;
10727;SDS011;5415;59.322;18.246;2023-03-01T06:10:00;1.60;;;0.77;;
10727;SDS011;5415;59.322;18.246;2023-03-01T06:12:30;1.07;;;0.70;;
10727;SDS011;5415;59.322;18.246;2023-03-01T06:14:58;2.37;;;1.00;;
10727;SDS011;5415;59.322;18.246;2023-03-01T06:17:25;1.83;;;0.80;;
10727;SDS011;5415;59.322;18.246;2023-03-01T06:19:54;2.47;;;0.90;;
10727;SDS011;5415;59.322;18.246;2023-03-01T06:22:24;0.80;;;0.80;;
10727;SDS011;5415;59.322;18.246;2023-03-01T06:24:52;1.47;;;0.87;;
10727;SDS011;5415;59.322;18.246;2023-03-01T06:27:20;0.70;;;0.70;;
10727;SDS011;5415;59.322;18.246;2023-03-01T06:29:47;1.77;;;0.77;;
10727;SDS011;5415;59.322;18.246;2023-03-01T06:32:15;3.80;;;0.97;;
10727;SDS011;5415;59.322;18.246;2023-03-01T06:34:43;5.50;;;1.60;;
10727;SDS011;5415;59.322;18.246;2023-03-01T06:37:11;2.20;;;1.50;;
10727;SDS011;5415;59.322;18.246;2023-03-01T06:39:40;2.03;;;1.27;;
10727;SDS011;5415;59.322;18.246;2023-03-01T06:42:07;3.90;;;1.00;;
10727;SDS011;5415;59.322;18.246;2023-03-01T06:44:36;4.53;;;0.80;;
10727;SDS011;5415;59.322;18.246;2023-03-01T06:47:03;3.37;;;1.03;;
10727;SDS011;5415;59.322;18.246;2023-03-01T06:49:31;3.07;;;0.80;;
10727;SDS011;5415;59.322;18.246;2023-03-01T06:51:59;3.90;;;1.13;;
10727;SDS011;5415;59.322;18.246;2023-03-01T06:54:27;2.70;;;0.90;;
10727;SDS011;5415;59.322;18.246;2023-03-01T06:56:56;2.50;;;0.80;;
10727;SDS011;5415;59.322;18.246;2023-03-01T06:59:23;0.93;;;0.80;;
10727;SDS011;5415;59.322;18.246;2023-03-01T07:01:51;1.60;;;0.77;;
10727;SDS011;5415;59.322;18.246;2023-03-01T07:04:20;4.80;;;0.97;;
10727;SDS011;5415;59.322;18.246;2023-03-01T07:06:49;1.53;;;0.70;;
10727;SDS011;5415;59.322;18.246;2023-03-01T07:09:20;2.97;;;1.17;;
10727;SDS011;5415;59.322;18.246;2023-03-01T07:11:48;2.83;;;1.20;;
10727;SDS011;5415;59.322;18.246;2023-03-01T07:14:16;1.97;;;1.23;;
10727;SDS011;5415;59.322;18.246;2023-03-01T07:16:46;4.60;;;1.00;;
10727;SDS011;5415;59.322;18.246;2023-03-01T07:19:13;1.30;;;0.80;;
10727;SDS011;5415;59.322;18.246;2023-03-01T07:21:42;1.37;;;0.80;;
10727;SDS011;5415;59.322;18.246;2023-03-01T07:24:10;3.30;;;0.90;;
10727;SDS011;5415;59.322;18.246;2023-03-01T07:26:37;1.60;;;0.90;;
10727;SDS011;5415;59.322;18.246;2023-03-01T07:29:05;2.63;;;0.80;;
10727;SDS011;5415;59.322;18.246;2023-03-01T07:31:35;3.70;;;0.90;;
10727;SDS011;5415;59.322;18.246;2023-03-01T07:34:02;2.00;;;0.80;;
10727;SDS011;5415;59.322;18.246;2023-03-01T07:36:30;1.07;;;0.73;;
10727;SDS011;5415;59.322;18.246;2023-03-01T07:38:59;1.83;;;0.70;;
10727;SDS011;5415;59.322;18.246;2023-03-01T07:41:29;1.93;;;1.03;;
10727;SDS011;5415;59.322;18.246;2023-03-01T07:43:57;1.43;;;0.80;;
10727;SDS011;5415;59.322;18.246;2023-03-01T07:46:25;4.97;;;0.93;;
10727;SDS011;5415;59.322;18.246;2023-03-01T07:48:54;1.90;;;0.83;;
10727;SDS011;5415;59.322;18.246;2023-03-01T07:51:23;2.53;;;0.80;;
10727;SDS011;5415;59.322;18.246;2023-03-01T07:53:50;8.80;;;1.37;;
10727;SDS011;5415;59.322;18.246;2023-03-01T07:56:18;2.20;;;0.90;;
10727;SDS011;5415;59.322;18.246;2023-03-01T07:58:47;3.33;;;0.80;;
10727;SDS011;5415;59.322;18.246;2023-03-01T08:01:16;1.77;;;0.77;;
10727;SDS011;5415;59.322;18.246;2023-03-01T08:03:45;3.43;;;0.80;;
10727;SDS011;5415;59.322;18.246;2023-03-01T08:06:16;1.77;;;0.77;;
10727;SDS011;5415;59.322;18.246;2023-03-01T08:08:44;3.20;;;1.07;;
10727;SDS011;5415;59.322;18.246;2023-03-01T08:11:12;1.57;;;0.73;;
10727;SDS011;5415;59.322;18.246;2023-03-01T08:13:40;1.80;;;0.73;;
10727;SDS011;5415;59.322;18.246;2023-03-01T08:16:10;0.60;;;0.60;;
10727;SDS011;5415;59.322;18.246;2023-03-01T08:18:38;0.60;;;0.60;;
10727;SDS011;5415;59.322;18.246;2023-03-01T08:21:06;3.40;;;1.00;;
10727;SDS011;5415;59.322;18.246;2023-03-01T08:23:36;1.40;;;1.17;;
10727;SDS011;5415;59.322;18.246;2023-03-01T08:26:06;2.87;;;0.73;;
10727;SDS011;5415;59.322;18.246;2023-03-01T08:28:34;2.20;;;0.90;;
10727;SDS011;5415;59.322;18.246;2023-03-01T08:31:02;4.50;;;0.97;;
10727;SDS011;5415;59.322;18.246;2023-03-01T08:33:31;3.70;;;0.80;;
10727;SDS011;5415;59.322;18.246;2023-03-01T08:36:02;1.93;;;0.90;;
10727;SDS011;5415;59.322;18.246;2023-03-01T08:38:33;3.90;;;1.00;;
10727;SDS011;5415;59.322;18.246;2023-03-01T08:41:05;4.73;;;1.00;;
10727;SDS011;5415;59.322;18.246;2023-03-01T08:43:33;3.10;;;1.90;;
10727;SDS011;5415;59.322;18.246;2023-03-01T08:46:00;3.63;;;1.63;;
10727;SDS011;5415;59.322;18.246;2023-03-01T08:48:28;2.67;;;1.77;;
10727;SDS011;5415;59.322;18.246;2023-03-01T08:50:57;2.83;;;1.20;;
10727;SDS011;5415;59.322;18.246;2023-03-01T08:53:24;2.30;;;1.03;;
10727;SDS011;5415;59.322;18.246;2023-03-01T08:55:52;5.00;;;1.10;;
10727;SDS011;5415;59.322;18.246;2023-03-01T08:58:21;5.67;;;1.20;;
10727;SDS011;5415;59.322;18.246;2023-03-01T09:00:49;2.30;;;1.10;;
10727;SDS011;5415;59.322;18.246;2023-03-01T09:03:16;2.80;;;0.90;;
10727;SDS011;5415;59.322;18.246;2023-03-01T09:05:44;1.80;;;0.97;;
10727;SDS011;5415;59.322;18.246;2023-03-01T09:08:14;2.67;;;0.77;;
10727;SDS011;5415;59.322;18.246;2023-03-01T09:10:42;4.77;;;1.00;;
10727;SDS011;5415;59.322;18.246;2023-03-01T09:13:09;2.50;;;1.00;;
10727;SDS011;5415;59.322;18.246;2023-03-01T09:15:39;3.70;;;0.97;;
10727;SDS011;5415;59.322;18.246;2023-03-01T09:18:08;1.03;;;0.90;;
10727;SDS011;5415;59.322;18.246;2023-03-01T09:20:37;4.03;;;1.53;;
10727;SDS011;5415;59.322;18.246;2023-03-01T09:23:04;5.93;;;1.00;;
10727;SDS011;5415;59.322;18.246;2023-03-01T09:25:33;4.10;;;1.10;;
10727;SDS011;5415;59.322;18.246;2023-03-01T09:28:01;6.50;;;1.70;;
10727;SDS011;5415;59.322;18.246;2023-03-01T09:30:29;3.53;;;1.30;;
10727;SDS011;5415;59.322;18.246;2023-03-01T09:32:59;9.17;;;1.60;;
10727;SDS011;5415;59.322;18.246;2023-03-01T09:35:27;3.73;;;1.23;;
10727;SDS011;5415;59.322;18.246;2023-03-01T09:37:54;4.53;;;1.70;;
10727;SDS011;5415;59.322;18.246;2023-03-01T09:40:23;3.23;;;1.10;;
10727;SDS011;5415;59.322;18.246;2023-03-01T09:42:54;2.37;;;1.20;;
10727;SDS011;5415;59.322;18.246;2023-03-01T09:45:25;2.37;;;0.90;;
10727;SDS011;5415;59.322;18.246;2023-03-01T09:47:53;4.00;;;1.00;;
10727;SDS011;5415;59.322;18.246;2023-03-01T09:50:24;4.20;;;1.57;;
10727;SDS011;5415;59.322;18.246;2023-03-01T09:52:54;1.73;;;0.93;;
10727;SDS011;5415;59.322;18.246;2023-03-01T09:55:26;2.27;;;0.90;;
10727;SDS011;5415;59.322;18.246;2023-03-01T09:58:00;2.47;;;1.03;;
10727;SDS011;5415;59.322;18.246;2023-03-01T10:00:35;5.80;;;1.00;;
10727;SDS011;5415;59.322;18.246;2023-03-01T10:03:11;3.87;;;0.90;;
10727;SDS011;5415;59.322;18.246;2023-03-01T10:05:52;9.13;;;1.10;;
10727;SDS011;5415;59.322;18.246;2023-03-01T10:08:25;2.63;;;0.80;;
10727;SDS011;5415;59.322;18.246;2023-03-01T10:10:56;4.77;;;0.90;;
10727;SDS011;5415;59.322;18.246;2023-03-01T10:13:25;4.00;;;0.90;;
10727;SDS011;5415;59.322;18.246;2023-03-01T10:15:55;2.13;;;0.90;;
10727;SDS011;5415;59.322;18.246;2023-03-01T10:18:26;4.97;;;1.13;;
10727;SDS011;5415;59.322;18.246;2023-03-01T10:20:56;5.03;;;0.90;;
10727;SDS011;5415;59.322;18.246;2023-03-01T10:23:26;2.97;;;1.00;;
10727;SDS011;5415;59.322;18.246;2023-03-01T10:28:42;2.23;;;0.83;;
10727;SDS011;5415;59.322;18.246;2023-03-01T10:31:14;3.80;;;0.80;;
10727;SDS011;5415;59.322;18.246;2023-03-01T10:33:42;6.10;;;2.10;;
10727;SDS011;5415;59.322;18.246;2023-03-01T10:36:11;2.00;;;1.10;;
10727;SDS011;5415;59.322;18.246;2023-03-01T10:41:25;2.50;;;1.50;;
10727;SDS011;5415;59.322;18.246;2023-03-01T10:43:54;5.10;;;2.00;;
10727;SDS011;5415;59.322;18.246;2023-03-01T10:46:27;2.37;;;1.57;;
10727;SDS011;5415;59.322;18.246;2023-03-01T10:49:10;4.63;;;1.00;;
10727;SDS011;5415;59.322;18.246;2023-03-01T10:51:42;1.83;;;1.10;;
10727;SDS011;5415;59.322;18.246;2023-03-01T10:54:16;1.27;;;0.87;;
10727;SDS011;5415;59.322;18.246;2023-03-01T10:56:47;3.20;;;0.83;;
10727;SDS011;5415;59.322;18.246;2023-03-01T10:59:24;4.07;;;1.00;;
10727;SDS011;5415;59.322;18.246;2023-03-01T11:02:04;12.80;;;4.63;;
10727;SDS011;5415;59.322;18.246;2023-03-01T11:04:55;17.77;;;7.70;;
10727;SDS011;5415;59.322;18.246;2023-03-01T11:07:26;31.57;;;14.83;;
10727;SDS011;5415;59.322;18.246;2023-03-01T11:09:56;33.47;;;17.47;;
10727;SDS011;5415;59.322;18.246;2023-03-01T11:12:23;8.93;;;2.93;;
10727;SDS011;5415;59.322;18.246;2023-03-01T11:14:54;5.87;;;3.40;;
10727;SDS011;5415;59.322;18.246;2023-03-01T11:17:23;3.27;;;1.70;;
10727;SDS011;5415;59.322;18.246;2023-03-01T11:20:00;4.60;;;1.30;;
10727;SDS011;5415;59.322;18.246;2023-03-01T11:22:31;7.07;;;1.10;;
10727;SDS011;5415;59.322;18.246;2023-03-01T11:25:00;3.73;;;1.73;;
10727;SDS011;5415;59.322;18.246;2023-03-01T11:27:30;2.50;;;1.37;;
10727;SDS011;5415;59.322;18.246;2023-03-01T11:30:00;3.67;;;1.80;;
10727;SDS011;5415;59.322;18.246;2023-03-01T11:32:38;2.57;;;1.63;;
10727;SDS011;5415;59.322;18.246;2023-03-01T11:35:09;3.47;;;1.50;;
10727;SDS011;5415;59.322;18.246;2023-03-01T11:37:44;4.13;;;1.30;;
10727;SDS011;5415;59.322;18.246;2023-03-01T11:40:15;2.30;;;1.10;;
10727;SDS011;5415;59.322;18.246;2023-03-01T11:42:50;2.57;;;1.10;;
10727;SDS011;5415;59.322;18.246;2023-03-01T11:45:19;2.60;;;1.10;;
10727;SDS011;5415;59.322;18.246;2023-03-01T11:47:54;3.50;;;1.00;;
10727;SDS011;5415;59.322;18.246;2023-03-01T11:50:26;4.03;;;1.17;;
10727;SDS011;5415;59.322;18.246;2023-03-01T11:52:59;7.27;;;1.20;;
10727;SDS011;5415;59.322;18.246;2023-03-01T11:55:36;2.17;;;0.83;;
10727;SDS011;5415;59.322;18.246;2023-03-01T11:58:11;1.87;;;1.07;;
10727;SDS011;5415;59.322;18.246;2023-03-01T12:00:47;4.90;;;1.03;;
10727;SDS011;5415;59.322;18.246;2023-03-01T12:03:26;2.23;;;1.00;;
10727;SDS011;5415;59.322;18.246;2023-03-01T12:06:05;1.87;;;1.10;;
10727;SDS011;5415;59.322;18.246;2023-03-01T12:08:37;5.67;;;0.77;;
10727;SDS011;5415;59.322;18.246;2023-03-01T12:11:11;3.87;;;1.17;;
10727;SDS011;5415;59.322;18.246;2023-03-01T12:13:47;2.53;;;0.90;;
10727;SDS011;5415;59.322;18.246;2023-03-01T12:16:31;4.10;;;0.90;;
10727;SDS011;5415;59.322;18.246;2023-03-01T12:19:07;2.07;;;1.10;;
10727;SDS011;5415;59.322;18.246;2023-03-01T12:21:42;0.70;;;0.70;;
10727;SDS011;5415;59.322;18.246;2023-03-01T12:27:04;3.33;;;1.20;;
10727;SDS011;5415;59.322;18.246;2023-03-01T12:32:22;1.63;;;0.80;;
10727;SDS011;5415;59.322;18.246;2023-03-01T12:35:01;1.83;;;0.80;;
10727;SDS011;5415;59.322;18.246;2023-03-01T12:37:33;2.27;;;0.90;;
10727;SDS011;5415;59.322;18.246;2023-03-01T12:40:11;2.20;;;0.90;;
10727;SDS011;5415;59.322;18.246;2023-03-01T12:42:48;1.70;;;0.93;;
10727;SDS011;5415;59.322;18.246;2023-03-01T12:45:30;5.00;;;0.80;;
10727;SDS011;5415;59.322;18.246;2023-03-01T12:48:08;2.13;;;1.00;;
10727;SDS011;5415;59.322;18.246;2023-03-01T12:50:38;7.13;;;1.00;;
10727;SDS011;5415;59.322;18.246;2023-03-01T12:53:07;3.83;;;1.50;;
10727;SDS011;5415;59.322;18.246;2023-03-01T12:55:43;2.63;;;1.00;;
10727;SDS011;5415;59.322;18.246;2023-03-01T12:58:19;1.83;;;0.80;;
10727;SDS011;5415;59.322;18.246;2023-03-01T13:00:52;2.40;;;0.83;;
10727;SDS011;5415;59.322;18.246;2023-03-01T13:03:24;2.13;;;0.80;;
10727;SDS011;5415;59.322;18.246;2023-03-01T13:06:00;2.43;;;0.80;;
10727;SDS011;5415;59.322;18.246;2023-03-01T13:08:34;1.47;;;0.80;;
10727;SDS011;5415;59.322;18.246;2023-03-01T13:11:03;2.40;;;0.70;;
10727;SDS011;5415;59.322;18.246;2023-03-01T13:13:34;3.37;;;0.80;;
10727;SDS011;5415;59.322;18.246;2023-03-01T13:18:46;1.80;;;0.80;;
10727;SDS011;5415;59.322;18.246;2023-03-01T13:21:15;1.10;;;0.70;;
10727;SDS011;5415;59.322;18.246;2023-03-01T13:23:56;1.23;;;0.70;;
10727;SDS011;5415;59.322;18.246;2023-03-01T13:26:23;2.63;;;1.10;;
10727;SDS011;5415;59.322;18.246;2023-03-01T13:28:56;2.10;;;0.80;;
10727;SDS011;5415;59.322;18.246;2023-03-01T13:42:50;3.10;;;0.80;;
10727;SDS011;5415;59.322;18.246;2023-03-01T13:45:32;2.37;;;0.80;;
10727;SDS011;5415;59.322;18.246;2023-03-01T13:48:02;1.90;;;0.87;;
10727;SDS011;5415;59.322;18.246;2023-03-01T13:50:37;1.20;;;0.70;;
10727;SDS011;5415;59.322;18.246;2023-03-01T13:53:06;4.40;;;0.90;;
10727;SDS011;5415;59.322;18.246;2023-03-01T13:55:36;2.43;;;0.80;;
10727;SDS011;5415;59.322;18.246;2023-03-01T13:58:13;3.30;;;0.63;;
10727;SDS011;5415;59.322;18.246;2023-03-01T14:00:44;0.73;;;0.60;;
10727;SDS011;5415;59.322;18.246;2023-03-01T14:03:13;1.67;;;0.70;;
10727;SDS011;5415;59.322;18.246;2023-03-01T14:05:42;1.00;;;0.50;;
10727;SDS011;5415;59.322;18.246;2023-03-01T14:08:20;0.83;;;0.50;;
10727;SDS011;5415;59.322;18.246;2023-03-01T14:10:51;1.30;;;0.60;;
10727;SDS011;5415;59.322;18.246;2023-03-01T14:13:27;1.43;;;0.60;;
10727;SDS011;5415;59.322;18.246;2023-03-01T14:16:03;0.77;;;0.63;;
10727;SDS011;5415;59.322;18.246;2023-03-01T14:18:34;3.37;;;0.60;;
10727;SDS011;5415;59.322;18.246;2023-03-01T14:21:07;1.57;;;0.80;;
10727;SDS011;5415;59.322;18.246;2023-03-01T14:23:34;1.13;;;0.60;;
10727;SDS011;5415;59.322;18.246;2023-03-01T14:26:07;1.33;;;0.80;;
10727;SDS011;5415;59.322;18.246;2023-03-01T14:28:37;2.78;;;0.60;;
10727;SDS011;5415;59.322;18.246;2023-03-01T14:33:53;0.90;;;0.47;;
10727;SDS011;5415;59.322;18.246;2023-03-01T14:36:26;2.67;;;0.70;;
10727;SDS011;5415;59.322;18.246;2023-03-01T14:38:54;0.60;;;0.60;;
10727;SDS011;5415;59.322;18.246;2023-03-01T14:41:25;3.73;;;0.90;;
10727;SDS011;5415;59.322;18.246;2023-03-01T14:43:55;2.73;;;0.73;;
10727;SDS011;5415;59.322;18.246;2023-03-01T14:46:24;1.73;;;0.73;;
10727;SDS011;5415;59.322;18.246;2023-03-01T14:48:57;1.17;;;0.60;;
10727;SDS011;5415;59.322;18.246;2023-03-01T14:51:28;1.93;;;0.93;;
10727;SDS011;5415;59.322;18.246;2023-03-01T14:53:56;3.03;;;0.60;;
10727;SDS011;5415;59.322;18.246;2023-03-01T14:56:24;2.47;;;0.70;;
10727;SDS011;5415;59.322;18.246;2023-03-01T14:58:51;0.73;;;0.60;;
10727;SDS011;5415;59.322;18.246;2023-03-01T15:01:20;5.87;;;0.80;;
10727;SDS011;5415;59.322;18.246;2023-03-01T15:03:49;0.77;;;0.60;;
10727;SDS011;5415;59.322;18.246;2023-03-01T15:06:19;3.13;;;0.70;;
10727;SDS011;5415;59.322;18.246;2023-03-01T15:08:47;3.30;;;0.73;;
10727;SDS011;5415;59.322;18.246;2023-03-01T15:11:19;2.93;;;0.63;;
10727;SDS011;5415;59.322;18.246;2023-03-01T15:13:49;3.23;;;0.70;;
10727;SDS011;5415;59.322;18.246;2023-03-01T15:16:19;4.87;;;0.90;;
10727;SDS011;5415;59.322;18.246;2023-03-01T15:18:49;5.10;;;1.27;;
10727;SDS011;5415;59.322;18.246;2023-03-01T15:21:19;2.53;;;0.83;;
10727;SDS011;5415;59.322;18.246;2023-03-01T15:23:49;3.43;;;0.70;;
10727;SDS011;5415;59.322;18.246;2023-03-01T15:26:21;1.90;;;0.53;;
10727;SDS011;5415;59.322;18.246;2023-03-01T15:28:51;2.43;;;0.70;;
10727;SDS011;5415;59.322;18.246;2023-03-01T15:31:20;2.87;;;0.70;;
10727;SDS011;5415;59.322;18.246;2023-03-01T15:33:48;3.77;;;0.80;;
10727;SDS011;5415;59.322;18.246;2023-03-01T15:39:25;1.07;;;0.60;;